createdAt,value
2019-05-05T00:00:14.266Z,79.33
2019-05-05T00:03:04.267Z,79.13
2019-05-05T00:05:38.660Z,79.11
2019-05-05T00:08:10.499Z,79.62
2019-05-05T00:10:59.763Z,79.63
2019-05-05T00:13:46.589Z,79.61
2019-05-05T00:16:26.609Z,79.03
2019-05-05T00:18:58.242Z,79.55
2019-05-05T00:21:29.795Z,80.23
2019-05-05T00:24:01.376Z,79.31
2019-05-05T00:26:34.899Z,79.10
2019-05-05T00:29:06.267Z,79.62
2019-05-05T00:31:39.422Z,79.31
2019-05-05T00:34:11.001Z,79.36
2019-05-05T00:36:44.463Z,79.54
2019-05-05T00:39:15.830Z,79.70
2019-05-05T00:41:47.361Z,79.83
2019-05-05T00:44:18.941Z,80.11
2019-05-05T00:47:09.406Z,80.44
2019-05-05T00:49:46.432Z,80.65
2019-05-05T00:52:16.688Z,80.76
2019-05-05T00:54:48.286Z,80.84
2019-05-05T00:57:19.977Z,80.34
2019-05-05T00:59:51.630Z,80.60
2019-05-05T01:02:29.699Z,80.70
2019-05-05T01:05:10.387Z,80.65
2019-05-05T01:07:44.273Z,80.68
2019-05-05T01:10:15.502Z,80.81
2019-05-05T01:12:47.083Z,79.85
2019-05-05T01:15:20.505Z,79.91
2019-05-05T01:17:52.048Z,79.66
2019-05-05T01:20:25.004Z,79.36
2019-05-05T01:22:56.678Z,79.47
2019-05-05T01:25:28.262Z,79.83
2019-05-05T01:27:59.854Z,79.65
2019-05-05T01:30:34.980Z,79.39
2019-05-05T01:33:25.037Z,80.02
2019-05-05T01:35:56.755Z,79.83
2019-05-05T01:38:50.147Z,79.89
2019-05-05T01:41:37.612Z,80.54
2019-05-05T01:44:09.196Z,80.08
2019-05-05T01:46:41.067Z,80.16
2019-05-05T01:49:14.543Z,80.49
2019-05-05T01:51:45.967Z,80.34
2019-05-05T01:54:17.535Z,79.94
2019-05-05T01:56:52.275Z,79.62
2019-05-05T01:59:24.950Z,79.64
2019-05-05T02:01:56.685Z,79.68
2019-05-05T02:04:28.335Z,79.77
2019-05-05T02:07:00.092Z,79.94
2019-05-05T02:09:31.642Z,80.11
2019-05-05T02:12:05.175Z,80.11
2019-05-05T02:14:36.578Z,80.24
2019-05-05T02:17:08.460Z,80.26
2019-05-05T02:19:40.310Z,80.14
2019-05-05T02:22:11.989Z,80.18
2019-05-05T02:24:44.387Z,80.15
2019-05-05T02:27:19.568Z,80.09
2019-05-05T02:30:08.992Z,80.09
2019-05-05T02:33:06.462Z,80.04
2019-05-05T02:35:38.136Z,79.45
2019-05-05T02:38:09.852Z,79.77
2019-05-05T02:40:41.833Z,79.67
2019-05-05T02:43:15.117Z,79.63
2019-05-05T02:46:15.223Z,80.00
2019-05-05T02:48:48.317Z,79.86
2019-05-05T02:51:25.498Z,79.82
2019-05-05T02:53:57.989Z,79.88
2019-05-05T02:56:35.781Z,80.09
2019-05-05T02:59:11.521Z,80.17
2019-05-05T03:02:07.715Z,80.28
2019-05-05T03:04:39.419Z,79.82
2019-05-05T03:07:13.847Z,79.43
2019-05-05T03:09:47.336Z,79.11
2019-05-05T03:12:21.515Z,79.29
2019-05-05T03:14:55.689Z,79.66
2019-05-05T03:17:28.150Z,79.63
2019-05-05T03:19:59.831Z,79.37
2019-05-05T03:22:33.991Z,79.57
2019-05-05T03:25:05.833Z,79.48
2019-05-05T03:27:39.074Z,79.65
2019-05-05T03:30:11.354Z,78.98
2019-05-05T03:32:45.522Z,78.59
2019-05-05T03:35:16.388Z,78.79
2019-05-05T03:37:48.360Z,78.09
2019-05-05T03:40:24.745Z,79.06
2019-05-05T03:43:05.053Z,79.71
2019-05-05T03:45:44.547Z,79.19
2019-05-05T03:48:16.371Z,78.30
2019-05-05T03:50:47.946Z,78.50
2019-05-05T03:53:19.727Z,78.77
2019-05-05T03:55:54.482Z,78.93
2019-05-05T03:58:26.359Z,78.81
2019-05-05T04:01:40.495Z,78.77
2019-05-05T04:04:37.820Z,78.58
2019-05-05T04:07:09.666Z,78.60
2019-05-05T04:09:41.439Z,77.85
2019-05-05T04:12:14.351Z,78.08
2019-05-05T04:14:47.181Z,78.28
2019-05-05T04:17:56.238Z,77.89
2019-05-05T04:20:53.460Z,77.78
2019-05-05T04:23:25.119Z,77.73
2019-05-05T04:25:56.683Z,77.59
2019-05-05T04:28:28.261Z,77.63
2019-05-05T04:30:59.846Z,77.43
2019-05-05T04:33:31.398Z,77.22
2019-05-05T04:36:03.868Z,77.08
2019-05-05T04:38:35.608Z,77.17
2019-05-05T04:41:07.473Z,77.34
2019-05-05T04:43:39.331Z,77.07
2019-05-05T04:46:10.939Z,77.23
2019-05-05T04:48:57.065Z,77.06
2019-05-05T04:51:44.826Z,76.77
2019-05-05T04:54:33.476Z,76.25
2019-05-05T04:57:05.139Z,76.46
2019-05-05T04:59:36.714Z,76.99
2019-05-05T05:02:18.283Z,76.82
2019-05-05T05:04:57.066Z,77.52
2019-05-05T05:07:28.923Z,77.87
2019-05-05T05:10:00.787Z,77.58
2019-05-05T05:12:34.170Z,77.53
2019-05-05T05:15:06.296Z,77.56
2019-05-05T05:17:46.538Z,78.23
2019-05-05T05:20:18.337Z,77.49
2019-05-05T05:22:49.896Z,76.29
2019-05-05T05:25:23.959Z,75.87
2019-05-05T05:27:55.236Z,77.12
2019-05-05T05:30:26.808Z,76.20
2019-05-05T05:32:58.389Z,75.38
2019-05-05T05:35:30.219Z,75.57
2019-05-05T05:38:01.807Z,74.89
2019-05-05T05:41:04.487Z,74.63
2019-05-05T05:43:57.932Z,74.36
2019-05-05T05:46:48.396Z,74.09
2019-05-05T05:49:24.343Z,73.79
2019-05-05T05:51:55.910Z,73.66
2019-05-05T05:54:27.501Z,72.83
2019-05-05T05:56:59.069Z,73.07
2019-05-05T05:59:31.608Z,72.11
2019-05-05T06:02:09.793Z,71.80
2019-05-05T06:04:37.047Z,72.56
2019-05-05T06:07:08.963Z,70.98
2019-05-05T06:09:40.505Z,71.09
2019-05-05T06:12:14.008Z,72.06
2019-05-05T06:14:45.497Z,70.50
2019-05-05T06:17:17.101Z,69.57
2019-05-05T06:19:48.640Z,69.64
2019-05-05T06:22:28.527Z,69.87
2019-05-05T06:24:54.092Z,70.72
2019-05-05T06:27:25.973Z,69.21
2019-05-05T06:29:57.517Z,70.10
2019-05-05T06:32:29.121Z,70.50
2019-05-05T06:35:00.685Z,69.82
2019-05-05T06:37:34.218Z,68.90
2019-05-05T06:40:08.872Z,69.23
2019-05-05T06:42:51.678Z,69.92
2019-05-05T06:45:30.478Z,68.95
2019-05-05T06:48:04.187Z,67.54
2019-05-05T06:50:35.289Z,68.64
2019-05-05T06:53:07.035Z,68.32
2019-05-05T06:55:38.578Z,70.43
2019-05-05T06:58:10.152Z,68.01
2019-05-05T07:00:43.952Z,71.13
2019-05-05T07:03:16.170Z,68.42
2019-05-05T07:05:47.750Z,66.75
2019-05-05T07:08:19.386Z,66.23
2019-05-05T07:10:50.955Z,66.97
2019-05-05T07:13:24.393Z,65.96
2019-05-05T07:15:55.800Z,65.59
2019-05-05T07:18:27.398Z,65.43
2019-05-05T07:20:58.987Z,65.34
2019-05-05T07:23:30.616Z,65.06
2019-05-05T07:26:04.199Z,66.24
2019-05-05T07:28:35.465Z,67.54
2019-05-05T07:31:07.668Z,66.35
2019-05-05T07:33:39.307Z,66.72
2019-05-05T07:36:44.315Z,66.47
2019-05-05T07:39:15.295Z,65.46
2019-05-05T07:41:46.885Z,65.04
2019-05-05T07:44:28.418Z,64.31
2019-05-05T07:46:51.875Z,66.83
2019-05-05T07:49:25.336Z,65.34
2019-05-05T07:51:58.468Z,64.54
2019-05-05T07:54:31.491Z,66.31
2019-05-05T07:57:04.186Z,65.21
2019-05-05T07:59:35.831Z,63.96
2019-05-05T08:02:07.403Z,64.78
2019-05-05T08:04:39.027Z,64.57
2019-05-05T08:07:10.785Z,63.80
2019-05-05T08:09:44.397Z,62.30
2019-05-05T08:12:15.691Z,62.54
2019-05-05T08:14:47.400Z,62.84
2019-05-05T08:17:40.401Z,63.18
2019-05-05T08:20:25.236Z,62.16
2019-05-05T08:22:56.962Z,63.26
2019-05-05T08:25:50.776Z,63.24
2019-05-05T08:28:30.683Z,62.55
2019-05-05T08:31:11.425Z,61.45
2019-05-05T08:33:44.187Z,62.38
2019-05-05T08:36:17.081Z,62.36
2019-05-05T08:38:48.729Z,61.10
2019-05-05T08:41:20.394Z,61.24
2019-05-05T08:43:54.167Z,61.77
2019-05-05T08:46:25.293Z,60.49
2019-05-05T08:48:56.918Z,61.06
2019-05-05T08:51:28.529Z,59.77
2019-05-05T08:54:00.149Z,59.52
2019-05-05T08:56:31.783Z,58.97
2019-05-05T08:59:03.722Z,58.71
2019-05-05T09:01:35.462Z,58.75
2019-05-05T09:04:07.064Z,58.40
2019-05-05T09:06:38.633Z,58.81
2019-05-05T09:09:10.657Z,58.36
2019-05-05T09:11:43.804Z,58.24
2019-05-05T09:14:15.534Z,58.24
2019-05-05T09:16:47.149Z,58.86
2019-05-05T09:19:20.195Z,61.83
2019-05-05T09:21:54.001Z,57.35
2019-05-05T09:24:30.835Z,57.96
2019-05-05T09:27:24.517Z,57.35
2019-05-05T09:29:55.852Z,57.13
2019-05-05T09:32:27.472Z,55.03
2019-05-05T09:34:59.341Z,53.84
2019-05-05T09:37:30.955Z,54.59
2019-05-05T09:40:04.536Z,54.41
2019-05-05T09:42:37.054Z,55.19
2019-05-05T09:45:09.738Z,53.69
2019-05-05T09:47:41.367Z,53.47
2019-05-05T09:50:14.354Z,55.34
2019-05-05T09:52:46.174Z,54.68
2019-05-05T09:55:17.802Z,51.79
2019-05-05T09:57:49.427Z,53.20
2019-05-05T10:00:21.507Z,57.24
2019-05-05T10:02:54.428Z,52.66
2019-05-05T10:05:26.227Z,50.36
2019-05-05T10:07:59.508Z,50.49
2019-05-05T10:10:31.078Z,51.74
2019-05-05T10:13:04.178Z,52.46
2019-05-05T10:15:35.958Z,50.72
2019-05-05T10:18:07.604Z,51.53
2019-05-05T10:20:39.204Z,51.30
2019-05-05T10:23:10.841Z,51.63
2019-05-05T10:25:48.341Z,50.27
2019-05-05T10:28:21.135Z,48.71
2019-05-05T10:30:53.880Z,48.96
2019-05-05T10:33:25.647Z,51.11
2019-05-05T10:35:57.254Z,49.45
2019-05-05T10:38:29.092Z,47.69
2019-05-05T10:41:00.741Z,47.69
2019-05-05T10:43:34.233Z,49.52
2019-05-05T10:46:05.709Z,48.63
2019-05-05T10:48:37.340Z,48.20
2019-05-05T10:51:08.950Z,49.32
2019-05-05T10:53:40.559Z,50.93
2019-05-05T10:56:13.834Z,51.48
2019-05-05T10:58:45.546Z,50.82
2019-05-05T11:01:17.140Z,52.01
2019-05-05T11:03:48.938Z,50.27
2019-05-05T11:06:20.547Z,51.69
2019-05-05T11:08:53.996Z,49.99
2019-05-05T11:11:25.480Z,50.08
2019-05-05T11:13:57.126Z,48.75
2019-05-05T11:16:28.695Z,49.22
2019-05-05T11:19:00.357Z,52.12
2019-05-05T11:21:34.077Z,50.45
2019-05-05T11:24:05.284Z,48.49
2019-05-05T11:26:36.894Z,50.83
2019-05-05T11:29:08.518Z,51.55
2019-05-05T11:31:40.272Z,51.44
2019-05-05T11:34:16.402Z,51.84
2019-05-05T11:37:16.729Z,50.33
2019-05-05T11:39:48.315Z,50.39
2019-05-05T11:42:19.912Z,50.14
2019-05-05T11:44:53.370Z,49.06
2019-05-05T11:47:24.950Z,48.42
2019-05-05T11:49:56.838Z,48.94
2019-05-05T11:52:28.477Z,50.42
2019-05-05T11:55:11.293Z,49.42
2019-05-05T11:57:34.579Z,48.46
2019-05-05T12:00:07.858Z,47.64
2019-05-05T12:02:39.527Z,43.68
2019-05-05T12:05:11.423Z,45.39
2019-05-05T12:07:44.519Z,45.14
2019-05-05T12:10:43.837Z,46.04
2019-05-05T12:13:15.282Z,46.41
2019-05-05T12:15:49.213Z,46.86
2019-05-05T12:18:20.832Z,46.90
2019-05-05T12:20:54.378Z,48.22
2019-05-05T12:23:26.344Z,49.89
2019-05-05T12:26:17.311Z,48.87
2019-05-05T12:28:57.864Z,50.39
2019-05-05T12:31:30.260Z,47.85
2019-05-05T12:34:03.989Z,49.59
2019-05-05T12:36:47.654Z,47.99
2019-05-05T12:39:19.253Z,49.15
2019-05-05T12:41:50.856Z,49.69
2019-05-05T12:44:30.461Z,46.71
2019-05-05T12:47:10.867Z,45.29
2019-05-05T12:49:43.990Z,48.64
2019-05-05T12:52:17.327Z,45.57
2019-05-05T12:54:48.968Z,47.58
2019-05-05T12:57:20.567Z,45.86
2019-05-05T12:59:53.682Z,45.68
2019-05-05T13:02:25.489Z,45.04
2019-05-05T13:04:57.416Z,45.22
2019-05-05T13:07:28.991Z,45.79
2019-05-05T13:10:00.711Z,47.70
2019-05-05T13:12:34.412Z,48.09
2019-05-05T13:15:07.187Z,47.63
2019-05-05T13:17:39.780Z,47.71
2019-05-05T13:20:38.620Z,46.51
2019-05-05T13:23:41.211Z,46.81
2019-05-05T13:26:21.285Z,43.93
2019-05-05T13:28:54.296Z,43.99
2019-05-05T13:31:25.966Z,43.48
2019-05-05T13:33:57.558Z,43.06
2019-05-05T13:36:29.195Z,42.68
2019-05-05T13:39:00.926Z,43.28
2019-05-05T13:41:34.203Z,44.30
2019-05-05T13:44:10.307Z,45.58
2019-05-05T13:46:44.183Z,46.31
2019-05-05T13:49:24.082Z,43.38
2019-05-05T13:51:55.806Z,43.76
2019-05-05T13:54:27.418Z,42.99
2019-05-05T13:56:59.095Z,44.58
2019-05-05T13:59:33.766Z,45.06
2019-05-05T14:02:05.512Z,44.25
2019-05-05T14:04:39.089Z,45.88
2019-05-05T14:07:10.800Z,40.69
2019-05-05T14:09:44.179Z,42.73
2019-05-05T14:12:15.876Z,44.03
2019-05-05T14:14:47.562Z,43.29
2019-05-05T14:17:19.140Z,41.83
2019-05-05T14:20:04.509Z,41.93
2019-05-05T14:22:24.354Z,41.80
2019-05-05T14:25:01.798Z,40.63
2019-05-05T14:27:33.510Z,41.30
2019-05-05T14:30:18.402Z,41.00
2019-05-05T14:32:50.109Z,42.44
2019-05-05T14:35:30.719Z,41.86
2019-05-05T14:38:05.852Z,42.08
2019-05-05T14:40:37.449Z,42.75
2019-05-05T14:43:10.391Z,41.45
2019-05-05T14:45:44.082Z,39.73
2019-05-05T14:48:15.565Z,38.67
2019-05-05T14:50:47.168Z,38.91
2019-05-05T14:53:18.794Z,36.75
2019-05-05T14:55:50.674Z,38.42
2019-05-05T14:58:22.391Z,38.91
2019-05-05T15:00:54.008Z,38.85
2019-05-05T15:03:26.678Z,40.16
2019-05-05T15:06:12.184Z,39.65
2019-05-05T15:09:13.858Z,40.13
2019-05-05T15:12:07.496Z,42.13
2019-05-05T15:14:39.109Z,41.45
2019-05-05T15:17:10.723Z,41.02
2019-05-05T15:19:43.610Z,42.49
2019-05-05T15:22:15.426Z,42.26
2019-05-05T15:24:47.046Z,42.74
2019-05-05T15:27:18.665Z,43.38
2019-05-05T15:29:50.274Z,41.43
2019-05-05T15:32:23.817Z,41.52
2019-05-05T15:34:55.261Z,40.42
2019-05-05T15:37:26.838Z,41.07
2019-05-05T15:39:58.450Z,41.42
2019-05-05T15:42:30.039Z,41.04
2019-05-05T15:45:04.013Z,39.22
2019-05-05T15:47:36.912Z,40.88
2019-05-05T15:50:09.570Z,40.30
2019-05-05T15:52:41.212Z,39.80
2019-05-05T15:55:14.040Z,40.11
2019-05-05T15:57:46.896Z,40.25
2019-05-05T16:00:18.795Z,40.25
2019-05-05T16:02:50.448Z,40.38
2019-05-05T16:05:24.146Z,39.63
2019-05-05T16:07:55.367Z,41.22
2019-05-05T16:10:27.941Z,40.86
2019-05-05T16:12:59.546Z,38.81
2019-05-05T16:15:50.014Z,40.23
2019-05-05T16:18:30.084Z,40.48
2019-05-05T16:21:18.366Z,40.13
2019-05-05T16:23:54.383Z,40.75
2019-05-05T16:26:27.080Z,40.86
2019-05-05T16:28:58.655Z,41.41
2019-05-05T16:31:30.242Z,40.74
2019-05-05T16:34:03.692Z,39.82
2019-05-05T16:36:36.405Z,39.86
2019-05-05T16:39:09.162Z,41.47
2019-05-05T16:41:43.393Z,42.00
2019-05-05T16:44:15.828Z,41.64
2019-05-05T16:46:47.592Z,40.53
2019-05-05T16:49:19.208Z,41.11
2019-05-05T16:52:04.050Z,41.81
2019-05-05T16:54:43.703Z,40.83
2019-05-05T16:57:15.337Z,41.54
2019-05-05T16:59:46.977Z,42.06
2019-05-05T17:02:18.608Z,44.13
2019-05-05T17:04:50.247Z,43.13
2019-05-05T17:07:23.642Z,43.72
2019-05-05T17:09:55.196Z,43.04
2019-05-05T17:12:26.814Z,43.51
2019-05-05T17:15:29.312Z,43.27
2019-05-05T17:18:33.050Z,43.39
2019-05-05T17:21:01.768Z,43.18
2019-05-05T17:23:34.189Z,42.68
2019-05-05T17:26:05.800Z,42.73
2019-05-05T17:28:37.413Z,43.60
2019-05-05T17:31:09.034Z,45.35
2019-05-05T17:33:40.648Z,44.93
2019-05-05T17:36:13.965Z,44.96
2019-05-05T17:38:45.676Z,43.74
2019-05-05T17:41:44.381Z,44.29
2019-05-05T17:44:33.693Z,44.35
2019-05-05T17:47:13.912Z,45.00
2019-05-05T17:49:58.024Z,45.35
2019-05-05T17:52:37.511Z,46.17
2019-05-05T17:55:28.908Z,45.84
2019-05-05T17:58:02.663Z,45.33
2019-05-05T18:00:37.885Z,45.71
2019-05-05T18:03:09.504Z,45.69
2019-05-05T18:05:59.083Z,45.42
2019-05-05T18:08:40.918Z,46.99
2019-05-05T18:11:19.442Z,47.76
2019-05-05T18:13:55.515Z,48.42
2019-05-05T18:16:27.172Z,46.29
2019-05-05T18:18:58.833Z,46.72
2019-05-05T18:21:32.218Z,47.28
2019-05-05T18:24:03.836Z,49.42
2019-05-05T18:26:35.543Z,50.46
2019-05-05T18:29:07.220Z,49.93
2019-05-05T18:31:38.876Z,48.00
2019-05-05T18:34:10.468Z,48.33
2019-05-05T18:36:44.391Z,49.65
2019-05-05T18:39:15.382Z,51.62
2019-05-05T18:41:53.019Z,51.64
2019-05-05T18:44:31.227Z,52.11
2019-05-05T18:47:17.566Z,53.80
2019-05-05T18:49:46.837Z,55.16
2019-05-05T18:52:18.429Z,53.68
2019-05-05T18:54:50.067Z,51.74
2019-05-05T18:57:21.697Z,51.76
2019-05-05T18:59:54.185Z,52.37
2019-05-05T19:02:53.956Z,52.90
2019-05-05T19:05:50.444Z,54.71
2019-05-05T19:08:24.908Z,56.53
2019-05-05T19:10:57.481Z,55.97
2019-05-05T19:13:29.126Z,56.83
2019-05-05T19:16:00.783Z,55.81
2019-05-05T19:18:34.009Z,55.18
2019-05-05T19:21:24.950Z,55.98
2019-05-05T19:23:56.622Z,57.58
2019-05-05T19:26:28.331Z,58.47
2019-05-05T19:29:02.408Z,59.12
2019-05-05T19:31:36.294Z,59.20
2019-05-05T19:34:06.702Z,60.33
2019-05-05T19:36:38.297Z,61.02
2019-05-05T19:39:10.040Z,59.93
2019-05-05T19:41:46.606Z,60.23
2019-05-05T19:44:16.087Z,61.06
2019-05-05T19:46:54.814Z,61.50
2019-05-05T19:49:26.514Z,62.56
2019-05-05T19:51:58.092Z,63.36
2019-05-05T19:54:29.703Z,62.69
2019-05-05T19:57:03.820Z,63.05
2019-05-05T19:59:35.950Z,63.82
2019-05-05T20:02:08.433Z,63.68
2019-05-05T20:04:40.072Z,63.83
2019-05-05T20:07:13.807Z,64.22
2019-05-05T20:09:44.992Z,65.17
2019-05-05T20:12:16.549Z,64.34
2019-05-05T20:14:48.153Z,63.37
2019-05-05T20:17:25.304Z,62.72
2019-05-05T20:19:56.902Z,63.09
2019-05-05T20:22:28.502Z,63.85
2019-05-05T20:25:00.137Z,63.71
2019-05-05T20:27:31.750Z,63.72
2019-05-05T20:30:06.401Z,65.20
2019-05-05T20:32:46.192Z,66.20
2019-05-05T20:35:39.687Z,66.41
2019-05-05T20:38:28.758Z,66.81
2019-05-05T20:41:11.289Z,66.99
2019-05-05T20:43:44.853Z,66.86
2019-05-05T20:46:16.156Z,67.24
2019-05-05T20:48:47.718Z,67.08
2019-05-05T20:51:19.427Z,67.38
2019-05-05T20:53:50.986Z,67.02
2019-05-05T20:56:22.636Z,67.15
2019-05-05T20:58:54.986Z,67.14
2019-05-05T21:01:26.702Z,67.70
2019-05-05T21:03:58.303Z,67.90
2019-05-05T21:06:29.996Z,67.77
2019-05-05T21:09:01.551Z,68.11
2019-05-05T21:11:34.789Z,67.23
2019-05-05T21:14:06.478Z,67.37
2019-05-05T21:16:38.159Z,68.36
2019-05-05T21:19:09.715Z,68.34
2019-05-05T21:21:44.639Z,69.09
2019-05-05T21:24:17.448Z,69.12
2019-05-05T21:27:00.155Z,68.89
2019-05-05T21:29:39.680Z,69.38
2019-05-05T21:32:05.018Z,69.34
2019-05-05T21:34:36.646Z,69.38
2019-05-05T21:37:08.219Z,69.38
2019-05-05T21:39:40.140Z,70.10
2019-05-05T21:42:13.927Z,70.45
2019-05-05T21:44:45.335Z,70.35
2019-05-05T21:47:16.928Z,69.74
2019-05-05T21:49:48.488Z,69.79
2019-05-05T21:52:38.987Z,70.21
2019-05-05T21:55:35.352Z,70.52
2019-05-05T21:58:25.360Z,70.91
2019-05-05T22:01:08.262Z,71.10
2019-05-05T22:03:40.256Z,70.99
2019-05-05T22:06:11.800Z,70.87
2019-05-05T22:08:43.411Z,71.02
2019-05-05T22:11:15.329Z,71.16
2019-05-05T22:13:47.223Z,70.65
2019-05-05T22:16:18.795Z,70.89
2019-05-05T22:18:50.873Z,71.02
2019-05-05T22:21:43.584Z,71.60
2019-05-05T22:24:16.384Z,71.77
2019-05-05T22:26:48.252Z,71.80
2019-05-05T22:29:19.890Z,72.03
2019-05-05T22:31:51.490Z,72.45
2019-05-05T22:34:24.128Z,72.86
2019-05-05T22:36:56.113Z,72.60
2019-05-05T22:39:27.958Z,72.14
2019-05-05T22:41:59.507Z,71.84
2019-05-05T22:44:33.701Z,71.78
2019-05-05T22:47:05.009Z,71.63
2019-05-05T22:49:36.578Z,71.92
2019-05-05T22:52:08.225Z,72.39
2019-05-05T22:54:39.784Z,72.35
2019-05-05T22:57:13.889Z,72.42
2019-05-05T22:59:44.915Z,72.60
2019-05-05T23:02:18.141Z,72.42
2019-05-05T23:04:58.740Z,72.98
2019-05-05T23:07:32.045Z,73.05
2019-05-05T23:10:04.587Z,73.03
2019-05-05T23:12:36.725Z,72.42
2019-05-05T23:15:09.255Z,72.55
2019-05-05T23:17:54.307Z,72.53
2019-05-05T23:21:11.424Z,72.89
2019-05-05T23:24:20.307Z,73.14
2019-05-05T23:26:54.547Z,72.00
2019-05-05T23:29:26.746Z,73.01
2019-05-05T23:31:58.554Z,73.66
2019-05-05T23:34:30.396Z,73.46
2019-05-05T23:37:04.224Z,73.26
2019-05-05T23:39:35.778Z,73.32
2019-05-05T23:42:07.600Z,73.03
2019-05-05T23:44:39.457Z,72.69
2019-05-05T23:47:11.297Z,73.24
2019-05-05T23:49:44.005Z,73.29
2019-05-05T23:52:15.926Z,73.23
2019-05-05T23:54:47.801Z,73.01
2019-05-05T23:57:19.607Z,73.01
2019-05-05T23:59:53.308Z,73.59
